Terminal Aerodrome Forecast
Issued by NWS Billings, MT

Home | Current Version | Previous Version | Text Only | Print | Product List | Glossary Off
Versions: 1 2 3 4 5 6 7 8 9 10 11 12 13 14 15

000
FTUS45 KBYZ 241734
TAFMLS
TAF
KMLS 241734Z 2418/2518 36006KT P6SM VCSH SCT015 BKN025 BKN040
     FM250000 VRB05KT P6SM SCT025 BKN040
     FM250800 14004KT 6SM BR SCT003 SCT040
     FM251500 15004KT P6SM SCT050 BKN100=

USA.gov is the U.S. government's official web portal to all federal, state and local government web resources and services.